Time;durP1;ratioP1;P1;durP2;ratioP2;P2;SDS_P1;SDS_P2;PMS_P1;PMS_P2;Temp;Humidity;BMP_temperature;BMP_pressure;BME280_temperature;BME280_humidity;BME280_pressure;Samples;Min_cycle;Max_cycle;Signal;HPM_P1;HPM_P2
2024/02/04 00:01:50;;;;;;;12.63;9.48;;;9.40;99.90;;;;;;5037718;28;20099;-51
2024/02/04 00:04:15;;;;;;;12.90;8.73;;;9.40;99.90;;;;;;5038955;28;20032;-51
2024/02/04 00:06:41;;;;;;;13.57;8.93;;;9.50;99.90;;;;;;5048060;28;20033;-52
2024/02/04 00:09:08;;;;;;;11.05;7.45;;;9.60;99.90;;;;;;5040757;28;20041;-53
2024/02/04 00:11:34;;;;;;;10.48;7.50;;;9.70;99.90;;;;;;5039727;28;20060;-52
2024/02/04 00:14:00;;;;;;;10.95;8.02;;;9.70;99.90;;;;;;5041447;28;20029;-55
2024/02/04 00:16:26;;;;;;;8.95;6.65;;;9.80;99.90;;;;;;5040911;28;20067;-52
2024/02/04 00:18:52;;;;;;;10.30;7.45;;;9.90;99.90;;;;;;5029163;28;20037;-51
2024/02/04 00:21:17;;;;;;;10.40;7.68;;;10.00;99.70;;;;;;5021091;28;20079;-53
2024/02/04 00:23:43;;;;;;;11.25;7.82;;;10.10;99.60;;;;;;5040683;28;20086;-52
2024/02/04 00:26:09;;;;;;;13.07;7.80;;;10.20;99.30;;;;;;5043377;28;20438;-50
2024/02/04 00:28:35;;;;;;;9.45;7.18;;;10.30;99.10;;;;;;5037216;28;20052;-51
2024/02/04 00:31:01;;;;;;;10.68;7.97;;;10.40;98.90;;;;;;5043469;28;20022;-51
2024/02/04 00:33:26;;;;;;;10.00;7.60;;;10.40;98.70;;;;;;5041556;28;20033;-54
2024/02/04 00:35:52;;;;;;;10.60;7.63;;;10.50;98.70;;;;;;5042743;28;20090;-52
2024/02/04 00:38:18;;;;;;;14.73;9.20;;;10.60;98.70;;;;;;5042933;28;20018;-51
2024/02/04 00:40:43;;;;;;;10.70;8.00;;;10.60;98.60;;;;;;5033422;28;20524;-55
2024/02/04 00:43:09;;;;;;;13.00;9.52;;;10.70;98.50;;;;;;5033055;28;20025;-52
2024/02/04 00:45:35;;;;;;;8.00;6.97;;;10.70;98.50;;;;;;5032946;28;20142;-53
2024/02/04 00:48:01;;;;;;;10.57;6.60;;;10.80;98.30;;;;;;5033020;28;20043;-52
2024/02/04 00:50:26;;;;;;;8.65;6.22;;;10.80;98.30;;;;;;5032975;28;20365;-54
2024/02/04 00:52:55;;;;;;;8.95;5.72;;;10.90;98.20;;;;;;5047220;28;20063;-54
2024/02/04 00:55:20;;;;;;;9.57;6.65;;;10.90;98.30;;;;;;5032869;28;20041;-53
2024/02/04 00:57:46;;;;;;;8.23;6.40;;;10.90;98.40;;;;;;5032693;28;20038;-53
2024/02/04 01:00:15;;;;;;;8.57;5.15;;;10.90;98.50;;;;;;5032794;28;20108;-54
2024/02/04 01:02:41;;;;;;;6.18;4.47;;;11.00;98.60;;;;;;5032679;28;20520;-52
2024/02/04 01:05:07;;;;;;;10.75;6.75;;;11.00;98.90;;;;;;5047119;28;20125;-52
2024/02/04 01:07:33;;;;;;;6.32;5.00;;;11.00;98.80;;;;;;5032526;28;20025;-53
2024/02/04 01:09:58;;;;;;;5.60;4.35;;;11.00;98.80;;;;;;5030523;28;20396;-52
2024/02/04 01:12:24;;;;;;;25.80;16.33;;;10.90;99.20;;;;;;5032600;28;20029;-54
2024/02/04 01:14:50;;;;;;;23.23;14.02;;;10.90;99.60;;;;;;5032504;28;20025;-53
2024/02/04 01:17:15;;;;;;;13.52;8.73;;;10.90;99.90;;;;;;5032083;28;20481;-53
2024/02/04 01:19:41;;;;;;;6.57;4.95;;;10.90;99.90;;;;;;5032397;28;20041;-52
2024/02/04 01:22:07;;;;;;;7.90;4.55;;;10.90;99.90;;;;;;5032517;28;20025;-53
2024/02/04 01:24:32;;;;;;;4.72;3.70;;;10.90;99.90;;;;;;5032292;28;20531;-52
2024/02/04 01:26:58;;;;;;;17.85;12.60;;;10.90;99.90;;;;;;5032338;28;20029;-53
2024/02/04 01:29:24;;;;;;;18.42;13.55;;;10.90;99.90;;;;;;5030208;28;20033;-54
2024/02/04 01:31:49;;;;;;;7.75;5.18;;;10.90;99.90;;;;;;5032388;28;20036;-53
2024/02/04 01:34:15;;;;;;;5.68;4.10;;;11.00;99.90;;;;;;5032048;28;20053;-54
2024/02/04 01:36:41;;;;;;;73.60;44.17;;;10.90;99.90;;;;;;5030103;28;20405;-55
2024/02/04 01:39:07;;;;;;;30.83;18.25;;;11.00;99.90;;;;;;5046718;28;20402;-53
2024/02/04 01:41:33;;;;;;;9.43;6.05;;;11.00;99.90;;;;;;5032142;28;20031;-53
2024/02/04 01:43:59;;;;;;;21.33;12.50;;;11.10;99.90;;;;;;5041385;28;20453;-53
2024/02/04 01:46:25;;;;;;;16.10;9.27;;;11.20;99.90;;;;;;5052118;28;20404;-55
2024/02/04 01:48:51;;;;;;;8.13;5.47;;;11.20;99.90;;;;;;5033291;28;20056;-53
2024/02/04 01:51:18;;;;;;;11.65;6.65;;;11.30;99.90;;;;;;5051870;28;20021;-54
2024/02/04 01:53:45;;;;;;;14.73;8.93;;;11.30;99.90;;;;;;5051792;28;20075;-55
2024/02/04 01:56:12;;;;;;;12.57;9.20;;;11.30;99.90;;;;;;5051759;28;20029;-55
2024/02/04 01:58:38;;;;;;;13.68;9.60;;;11.40;99.90;;;;;;5052001;28;20029;-53
2024/02/04 02:01:05;;;;;;;15.02;10.50;;;11.40;99.90;;;;;;5051802;28;20051;-54
2024/02/04 02:03:31;;;;;;;24.83;16.45;;;11.40;99.80;;;;;;5051896;28;20037;-55
2024/02/04 02:05:58;;;;;;;11.35;8.48;;;11.60;99.60;;;;;;5049744;28;20396;-54
2024/02/04 02:08:24;;;;;;;11.10;7.97;;;11.50;99.50;;;;;;5051697;28;20391;-53
2024/02/04 02:10:55;;;;;;;8.50;5.82;;;11.50;99.60;;;;;;5049779;28;20049;-51
2024/02/04 02:13:27;;;;;;;13.75;9.07;;;11.50;99.70;;;;;;5051641;28;20059;-52
2024/02/04 02:15:58;;;;;;;19.23;10.07;;;11.50;99.70;;;;;;5051596;28;20567;-54
2024/02/04 02:18:37;;;;;;;22.20;14.65;;;11.50;99.80;;;;;;5051720;28;20412;-51
2024/02/04 02:21:41;;;;;;;24.17;14.52;;;11.50;99.80;;;;;;5051740;28;20389;-51
2024/02/04 02:24:11;;;;;;;28.92;17.65;;;11.50;99.90;;;;;;5041285;28;20052;-54
2024/02/04 02:26:38;;;;;;;26.45;15.85;;;11.60;99.80;;;;;;5031726;28;20032;-51
2024/02/04 02:29:05;;;;;;;11.15;7.18;;;11.60;99.60;;;;;;5033090;28;20033;-53
2024/02/04 02:31:31;;;;;;;9.15;5.82;;;11.60;99.50;;;;;;5035431;28;20041;-54
2024/02/04 02:33:58;;;;;;;9.70;5.85;;;11.60;99.70;;;;;;5035095;28;20025;-55
2024/02/04 02:36:25;;;;;;;7.32;4.82;;;11.40;99.90;;;;;;5035323;28;20072;-51
2024/02/04 02:39:10;;;;;;;7.90;5.45;;;11.50;99.90;;;;;;5035481;28;20037;-52
2024/02/04 02:41:37;;;;;;;14.30;8.38;;;11.50;99.90;;;;;;5035334;28;20029;-54
2024/02/04 02:44:05;;;;;;;8.23;5.15;;;11.50;99.50;;;;;;5035145;28;20030;-52
2024/02/04 02:46:31;;;;;;;7.55;5.25;;;11.10;99.90;;;;;;5035096;28;20056;-54
2024/02/04 02:48:58;;;;;;;8.23;5.60;;;10.50;99.90;;;;;;5035199;28;20036;-52
2024/02/04 02:51:23;;;;;;;6.50;5.32;;;10.20;99.90;;;;;;5034949;28;20108;-53
2024/02/04 02:53:49;;;;;;;7.50;5.60;;;9.90;99.90;;;;;;5035191;28;20125;-52
2024/02/04 02:56:15;;;;;;;7.07;5.53;;;9.90;99.90;;;;;;5035067;28;20025;-54
2024/02/04 02:58:40;;;;;;;8.35;6.22;;;9.70;99.90;;;;;;5035069;28;20099;-54
2024/02/04 03:01:06;;;;;;;7.53;5.95;;;9.50;99.90;;;;;;5049562;28;20044;-54
2024/02/04 03:03:32;;;;;;;9.10;6.72;;;9.40;99.90;;;;;;5049447;28;20061;-52
2024/02/04 03:05:58;;;;;;;8.73;6.38;;;9.60;99.90;;;;;;5034995;28;20032;-54
2024/02/04 03:08:23;;;;;;;8.98;5.72;;;9.60;99.90;;;;;;5034940;28;20030;-54
2024/02/04 03:10:49;;;;;;;9.30;6.07;;;9.50;99.90;;;;;;5034741;28;20425;-53
2024/02/04 03:13:15;;;;;;;6.75;5.20;;;9.30;99.90;;;;;;5034904;28;20366;-52
2024/02/04 03:15:42;;;;;;;6.85;4.60;;;9.00;99.90;;;;;;5034564;28;20034;-52
2024/02/04 03:18:08;;;;;;;5.80;4.53;;;8.90;99.90;;;;;;5034707;28;20037;-52
2024/02/04 03:20:34;;;;;;;6.97;4.90;;;;;;;;;;5034524;28;20029;-52
2024/02/04 03:23:00;;;;;;;9.38;6.65;;;8.90;99.90;;;;;;5034581;28;20030;-54
2024/02/04 03:25:28;;;;;;;6.85;4.78;;;8.60;99.90;;;;;;5034367;28;20094;-52
2024/02/04 03:27:54;;;;;;;6.50;5.05;;;;;;;;;;5034375;28;20037;-52
2024/02/04 03:30:19;;;;;;;6.72;4.72;;;8.60;99.90;;;;;;5034367;28;20045;-52
2024/02/04 03:32:45;;;;;;;6.78;4.20;;;8.50;99.90;;;;;;5051751;28;20029;-53
2024/02/04 03:35:11;;;;;;;7.00;4.97;;;8.50;99.90;;;;;;5052034;28;20080;-51
2024/02/04 03:37:37;;;;;;;6.78;4.90;;;8.60;99.90;;;;;;5051936;28;20045;-52
2024/02/04 03:40:03;;;;;;;8.82;5.75;;;8.50;99.90;;;;;;5051656;28;20029;-53
2024/02/04 03:42:28;;;;;;;8.60;5.93;;;8.60;99.90;;;;;;5051422;28;20195;-54
2024/02/04 03:44:54;;;;;;;9.60;6.30;;;8.60;99.90;;;;;;5051688;28;20112;-52
2024/02/04 03:47:20;;;;;;;7.78;5.72;;;8.70;99.90;;;;;;5051888;28;20041;-53
2024/02/04 03:49:46;;;;;;;12.63;9.25;;;9.00;99.90;;;;;;5051669;28;20025;-53
2024/02/04 03:52:11;;;;;;;13.50;9.02;;;9.20;99.90;;;;;;5051333;28;20136;-52
2024/02/04 03:54:37;;;;;;;15.07;10.27;;;9.30;99.90;;;;;;5051719;28;20064;-52
2024/02/04 03:57:03;;;;;;;13.23;9.07;;;9.20;99.90;;;;;;5034654;28;20041;-52
2024/02/04 03:59:29;;;;;;;10.32;7.10;;;9.30;99.90;;;;;;5052482;28;20777;-53
2024/02/04 04:01:54;;;;;;;10.82;7.38;;;9.30;99.90;;;;;;5054506;28;20040;-55
2024/02/04 04:04:20;;;;;;;10.75;7.15;;;9.50;99.90;;;;;;5058201;28;20047;-51
2024/02/04 04:06:47;;;;;;;10.68;7.60;;;9.50;99.90;;;;;;5053728;28;20393;-53
2024/02/04 04:09:12;;;;;;;9.93;7.80;;;9.60;99.90;;;;;;5053173;28;20079;-52
2024/02/04 04:11:38;;;;;;;10.88;7.45;;;9.50;99.90;;;;;;5053707;28;20036;-52
2024/02/04 04:14:04;;;;;;;11.68;7.25;;;9.40;99.90;;;;;;5053525;28;20067;-51
2024/02/04 04:16:30;;;;;;;11.18;8.18;;;9.20;99.90;;;;;;5050854;28;20076;-52
2024/02/04 04:18:56;;;;;;;10.20;7.40;;;9.30;99.90;;;;;;5001350;28;20060;-52
2024/02/04 04:21:21;;;;;;;12.90;8.18;;;9.40;99.90;;;;;;5034231;28;20068;-53
2024/02/04 04:23:47;;;;;;;11.73;7.03;;;9.70;99.90;;;;;;5051068;28;20036;-53
2024/02/04 04:26:13;;;;;;;11.05;7.15;;;9.80;99.90;;;;;;5050993;28;20045;-54
2024/02/04 04:28:38;;;;;;;11.90;8.23;;;9.90;99.90;;;;;;5050979;28;20040;-54
2024/02/04 04:31:04;;;;;;;13.95;8.15;;;9.90;99.90;;;;;;5050958;28;20040;-53
2024/02/04 04:33:30;;;;;;;11.00;8.27;;;9.90;99.90;;;;;;5050886;28;20426;-50
2024/02/04 04:35:56;;;;;;;10.70;7.32;;;9.90;99.90;;;;;;5033913;28;20095;-54
2024/02/04 04:38:22;;;;;;;11.88;9.20;;;10.00;99.90;;;;;;5050788;28;20036;-52
2024/02/04 04:40:47;;;;;;;11.18;8.52;;;10.00;99.90;;;;;;5050464;28;20119;-53
2024/02/04 04:43:13;;;;;;;88.85;53.08;;;10.10;99.90;;;;;;5050674;28;20037;-51
2024/02/04 04:45:40;;;;;;;59.30;37.20;;;10.10;99.90;;;;;;5050676;28;20488;-52
2024/02/04 04:48:07;;;;;;;60.10;37.15;;;10.10;99.90;;;;;;5052259;28;20056;-52
2024/02/04 04:50:33;;;;;;;38.40;23.40;;;10.20;99.90;;;;;;5050770;28;20052;-51
2024/02/04 04:52:59;;;;;;;30.23;17.50;;;10.20;99.90;;;;;;5052014;28;20061;-53
2024/02/04 04:55:25;;;;;;;40.78;24.48;;;10.20;99.90;;;;;;5050650;28;20094;-54
2024/02/04 04:57:52;;;;;;;28.92;18.13;;;10.10;99.90;;;;;;5050773;28;20045;-53
2024/02/04 05:00:18;;;;;;;36.65;21.17;;;10.20;99.90;;;;;;5052575;28;20048;-54
2024/02/04 05:02:44;;;;;;;46.22;25.85;;;10.30;99.90;;;;;;5050601;28;20131;-51
2024/02/04 05:05:13;;;;;;;39.85;25.88;;;10.20;99.90;;;;;;5052494;28;20112;-52
2024/02/04 05:07:39;;;;;;;33.60;23.02;;;10.10;99.90;;;;;;5052103;28;20069;-51
2024/02/04 05:10:05;;;;;;;40.47;26.48;;;10.20;99.90;;;;;;5052505;28;20029;-51
2024/02/04 05:12:32;;;;;;;35.20;23.08;;;10.20;99.90;;;;;;5052486;28;20032;-53
2024/02/04 05:14:58;;;;;;;44.45;27.92;;;10.30;99.90;;;;;;5051238;28;20395;-51
2024/02/04 05:17:24;;;;;;;48.85;32.95;;;10.20;99.90;;;;;;5051798;28;20113;-53
2024/02/04 05:19:50;;;;;;;43.05;29.30;;;10.20;99.90;;;;;;5052378;28;20495;-51
2024/02/04 05:22:15;;;;;;;28.98;19.88;;;10.20;99.90;;;;;;5044357;28;20029;-53
2024/02/04 05:24:42;;;;;;;26.00;17.33;;;10.10;99.90;;;;;;5013708;28;20038;-51
2024/02/04 05:27:08;;;;;;;12.20;8.55;;;10.10;99.90;;;;;;5032417;28;20041;-53
2024/02/04 05:29:33;;;;;;;12.40;9.35;;;10.00;99.90;;;;;;5032321;28;20393;-52
2024/02/04 05:31:59;;;;;;;12.15;8.65;;;10.10;99.90;;;;;;5030328;28;20064;-55
2024/02/04 05:34:25;;;;;;;15.40;10.05;;;10.10;99.90;;;;;;5032021;28;20029;-54
2024/02/04 05:36:51;;;;;;;31.23;18.27;;;10.20;99.90;;;;;;5032276;28;20034;-53
2024/02/04 05:39:17;;;;;;;30.60;20.75;;;10.00;99.90;;;;;;5032119;28;20060;-53
2024/02/04 05:41:43;;;;;;;29.52;14.80;;;10.10;99.90;;;;;;5032129;28;20069;-52
2024/02/04 05:44:09;;;;;;;29.60;16.05;;;10.10;99.90;;;;;;5032242;28;20026;-51
2024/02/04 05:46:35;;;;;;;38.45;23.95;;;10.00;99.90;;;;;;5032121;28;20179;-52
2024/02/04 05:49:01;;;;;;;40.22;24.83;;;9.80;99.90;;;;;;5046599;28;20037;-53
2024/02/04 05:51:27;;;;;;;39.65;24.25;;;9.50;99.90;;;;;;5031778;28;20504;-52
2024/02/04 05:53:54;;;;;;;44.45;26.00;;;9.40;99.90;;;;;;5032170;28;20451;-54
2024/02/04 05:56:20;;;;;;;46.70;30.45;;;9.40;99.90;;;;;;5031905;28;20039;-53
2024/02/04 05:58:46;;;;;;;50.13;30.70;;;9.40;99.90;;;;;;5031906;28;20033;-53
2024/02/04 06:01:12;;;;;;;54.55;35.28;;;9.60;99.90;;;;;;5051043;28;20037;-53
2024/02/04 06:03:38;;;;;;;55.95;35.08;;;9.70;99.90;;;;;;5037818;28;20025;-54
2024/02/04 06:06:04;;;;;;;62.55;40.45;;;9.80;99.90;;;;;;5035585;28;20060;-54
2024/02/04 06:08:30;;;;;;;66.20;44.85;;;9.90;99.90;;;;;;5035568;28;20037;-52
2024/02/04 06:10:56;;;;;;;66.85;44.78;;;10.10;99.90;;;;;;5038022;28;20037;-54
2024/02/04 06:13:21;;;;;;;58.55;39.63;;;10.10;99.90;;;;;;5035859;28;20025;-53
2024/02/04 06:15:47;;;;;;;56.55;38.97;;;10.20;99.90;;;;;;5037418;28;20040;-53
2024/02/04 06:18:12;;;;;;;88.97;55.72;;;10.20;99.90;;;;;;5043487;28;20048;-51
2024/02/04 06:20:38;;;;;;;106.68;67.70;;;10.00;99.90;;;;;;5042043;28;20062;-52
2024/02/04 06:23:04;;;;;;;112.00;69.28;;;9.90;99.90;;;;;;5043817;28;20086;-55
2024/02/04 06:25:30;;;;;;;90.25;56.22;;;9.90;99.90;;;;;;5037508;28;20033;-53
2024/02/04 06:27:56;;;;;;;72.07;46.70;;;9.70;99.90;;;;;;5050255;28;20444;-52
2024/02/04 06:30:21;;;;;;;65.13;45.83;;;9.70;99.90;;;;;;5043717;28;20018;-50
2024/02/04 06:32:50;;;;;;;63.78;43.83;;;9.80;99.90;;;;;;5055293;28;20037;-52
2024/02/04 06:35:16;;;;;;;92.10;63.80;;;9.90;99.90;;;;;;5040060;28;20040;-51
2024/02/04 06:37:45;;;;;;;57.17;39.45;;;9.90;99.90;;;;;;5046199;28;20025;-54
2024/02/04 06:40:11;;;;;;;56.58;37.03;;;9.60;99.90;;;;;;5040359;28;20063;-52
2024/02/04 06:42:37;;;;;;;56.58;36.55;;;9.70;99.90;;;;;;5038524;28;20029;-52
2024/02/04 06:45:03;;;;;;;55.90;36.50;;;9.90;99.90;;;;;;5047829;28;20028;-54
2024/02/04 06:47:29;;;;;;;62.53;39.03;;;9.90;99.90;;;;;;5039082;28;20036;-54
2024/02/04 06:49:54;;;;;;;68.65;41.38;;;9.90;99.90;;;;;;5042482;28;20485;-51
2024/02/04 06:52:20;;;;;;;68.18;42.55;;;9.90;99.90;;;;;;5054528;28;20057;-53
2024/02/04 06:54:46;;;;;;;64.18;42.50;;;10.20;99.90;;;;;;5037557;28;20106;-54
2024/02/04 06:57:12;;;;;;;63.75;42.10;;;10.30;99.90;;;;;;5046355;28;20043;-52
2024/02/04 06:59:37;;;;;;;62.28;43.92;;;10.20;99.90;;;;;;5044328;28;20037;-52
2024/02/04 07:02:03;;;;;;;74.93;46.33;;;10.20;99.90;;;;;;5054847;28;20025;-51
2024/02/04 07:04:29;;;;;;;80.65;46.65;;;10.20;99.90;;;;;;5029501;28;20087;-52
2024/02/04 07:06:55;;;;;;;196.48;77.00;;;10.20;99.90;;;;;;5042026;28;20026;-51
2024/02/04 07:09:20;;;;;;;317.20;110.50;;;10.10;99.90;;;;;;5034853;28;20029;-52
2024/02/04 07:11:46;;;;;;;157.93;70.95;;;10.10;99.90;;;;;;5040450;28;20048;-54
2024/02/04 07:14:13;;;;;;;192.90;82.65;;;10.20;99.90;;;;;;5045410;28;20032;-54
2024/02/04 07:16:38;;;;;;;59.20;40.15;;;10.30;99.90;;;;;;5044384;28;20033;-54
2024/02/04 07:19:04;;;;;;;53.28;37.95;;;10.30;99.90;;;;;;5046563;28;20052;-52
2024/02/04 07:21:30;;;;;;;67.13;45.28;;;10.30;99.90;;;;;;5053356;28;20119;-53
2024/02/04 07:23:55;;;;;;;54.03;36.75;;;10.40;99.90;;;;;;5039927;28;20034;-52
2024/02/04 07:26:21;;;;;;;57.33;38.83;;;10.40;99.90;;;;;;5043639;28;20427;-54
2024/02/04 07:28:47;;;;;;;54.53;38.58;;;10.50;99.90;;;;;;5071956;28;20040;-52
2024/02/04 07:31:13;;;;;;;49.60;35.35;;;10.60;99.90;;;;;;5054586;28;20036;-55
2024/02/04 07:33:39;;;;;;;45.67;33.10;;;10.60;99.90;;;;;;5066407;28;20162;-52
2024/02/04 07:36:06;;;;;;;229.93;137.07;;;10.70;99.90;;;;;;5041738;28;20032;-55
2024/02/04 07:38:32;;;;;;;42.67;32.22;;;10.70;99.90;;;;;;5071873;28;20103;-57
2024/02/04 07:40:59;;;;;;;43.83;32.05;;;10.80;99.90;;;;;;5071652;28;20469;-54
2024/02/04 07:43:25;;;;;;;50.45;33.67;;;10.90;99.90;;;;;;5071569;28;20040;-55
2024/02/04 07:45:51;;;;;;;35.60;27.27;;;10.90;99.90;;;;;;5071814;28;20576;-54
2024/02/04 07:48:17;;;;;;;33.22;25.45;;;11.00;99.90;;;;;;5071375;28;20068;-52
2024/02/04 07:50:43;;;;;;;33.50;26.17;;;11.10;99.90;;;;;;5071814;28;20028;-55
2024/02/04 07:53:09;;;;;;;34.42;25.45;;;11.10;99.90;;;;;;5071600;28;20139;-56
2024/02/04 07:55:34;;;;;;;34.55;25.35;;;11.20;99.90;;;;;;5071799;28;20606;-59
2024/02/04 07:58:00;;;;;;;33.55;24.75;;;11.20;99.90;;;;;;5071696;28;20564;-54
2024/02/04 08:00:26;;;;;;;37.17;26.00;;;11.30;99.90;;;;;;5057857;28;20051;-54
2024/02/04 08:02:51;;;;;;;39.03;30.45;;;11.50;99.90;;;;;;5053887;28;20055;-57
2024/02/04 08:05:17;;;;;;;46.75;36.45;;;12.10;99.90;;;;;;5051746;28;20079;-56
2024/02/04 08:07:43;;;;;;;53.60;35.60;;;13.90;99.90;;;;;;5053404;28;20024;-60
2024/02/04 08:10:09;;;;;;;61.80;41.67;;;14.90;99.30;;;;;;5053782;28;20033;-53
2024/02/04 08:12:35;;;;;;;90.00;61.03;;;16.00;96.00;;;;;;5051559;28;20037;-53
2024/02/04 08:15:01;;;;;;;57.97;44.17;;;;;;;;;;5046326;28;20059;-53
2024/02/04 08:17:30;;;;;;;29.33;22.33;;;;;;;;;;5036556;28;20072;-57
2024/02/04 08:19:56;;;;;;;37.05;28.52;;;;;;;;;;5031753;28;20551;-55
2024/02/04 08:22:22;;;;;;;33.28;23.77;;;;;;;;;;5033593;28;20037;-57
2024/02/04 08:24:49;;;;;;;35.65;24.67;;;;;;;;;;5033614;28;20029;-56
2024/02/04 08:27:16;;;;;;;41.80;27.67;;;;;;;;;;5032600;28;20033;-56
2024/02/04 08:29:42;;;;;;;33.88;26.15;;;;;;;;;;5031554;28;20045;-55
2024/02/04 08:32:08;;;;;;;33.78;25.58;;;19.70;83.20;;;;;;5033456;28;20041;-54
2024/02/04 08:34:34;;;;;;;33.38;25.33;;;;;;;;;;5033748;28;20067;-53
2024/02/04 08:37:00;;;;;;;30.25;22.70;;;18.00;85.70;;;;;;5021017;28;20076;-57
2024/02/04 08:39:26;;;;;;;30.23;23.10;;;17.20;87.90;;;;;;5046932;28;20481;-52
2024/02/04 08:41:52;;;;;;;45.22;27.70;;;16.90;89.50;;;;;;5031203;28;20037;-53
2024/02/04 08:44:18;;;;;;;35.83;25.65;;;16.70;90.20;;;;;;5033263;28;20052;-57
2024/02/04 08:46:43;;;;;;;26.23;20.08;;;16.60;90.60;;;;;;5037932;28;20114;-56
2024/02/04 08:49:09;;;;;;;34.25;23.90;;;16.60;90.90;;;;;;5031229;28;20064;-55
2024/02/04 08:51:35;;;;;;;38.50;27.30;;;16.60;91.10;;;;;;5032487;28;20105;-55
2024/02/04 08:54:00;;;;;;;34.35;25.05;;;16.50;91.60;;;;;;5033064;28;20030;-54
2024/02/04 08:56:26;;;;;;;29.02;19.23;;;16.50;91.40;;;;;;5033672;28;20021;-51
2024/02/04 08:58:52;;;;;;;28.90;21.40;;;16.50;91.60;;;;;;5050747;28;20550;-52
2024/02/04 09:01:19;;;;;;;30.95;21.60;;;16.60;91.50;;;;;;5052885;28;20044;-52
2024/02/04 09:03:45;;;;;;;35.55;21.38;;;17.30;91.70;;;;;;5052701;28;20066;-54
2024/02/04 09:06:11;;;;;;;36.63;21.92;;;;;;;;;;5052762;28;20021;-58
2024/02/04 09:08:37;;;;;;;24.77;16.98;;;19.70;91.20;;;;;;5052678;28;20029;-54
2024/02/04 09:11:03;;;;;;;22.60;17.98;;;;;;;;;;5033811;28;20132;-57
2024/02/04 09:13:29;;;;;;;21.33;18.17;;;;;;;;;;5052610;28;20064;-53
2024/02/04 09:15:55;;;;;;;22.30;16.33;;;;;;;;;;5046194;28;20527;-52
2024/02/04 09:18:21;;;;;;;21.75;16.08;;;;;;;;;;5042156;28;20036;-50
2024/02/04 09:20:47;;;;;;;20.25;15.98;;;;;;;;;;5042871;28;20059;-54
2024/02/04 09:23:14;;;;;;;20.35;16.10;;;;;;;;;;5055390;28;20029;-59
2024/02/04 09:25:39;;;;;;;19.52;16.30;;;26.90;84.20;;;;;;5041976;28;20056;-53
2024/02/04 09:28:05;;;;;;;28.45;24.20;;;27.30;77.10;;;;;;5040294;28;20057;-55
2024/02/04 09:30:31;;;;;;;25.98;22.05;;;27.90;87.20;;;;;;5032400;28;20420;-54
2024/02/04 09:32:57;;;;;;;24.92;21.73;;;28.00;75.80;;;;;;5032444;28;20040;-54
2024/02/04 09:35:23;;;;;;;22.75;17.58;;;28.50;75.40;;;;;;5030296;28;20033;-50
2024/02/04 09:37:49;;;;;;;26.13;21.67;;;;;;;;;;5031245;28;20124;-55
2024/02/04 09:40:15;;;;;;;20.15;17.10;;;;;;;;;;5032368;28;20060;-56
2024/02/04 09:42:41;;;;;;;12.05;9.80;;;29.40;71.90;;;;;;5032253;28;20037;-52
2024/02/04 09:45:08;;;;;;;14.93;12.88;;;29.60;71.10;;;;;;5032302;28;20030;-57
2024/02/04 09:47:35;;;;;;;15.23;11.48;;;29.60;71.70;;;;;;5032122;28;20481;-54
2024/02/04 09:50:01;;;;;;;21.50;15.65;;;29.00;71.80;;;;;;5032212;28;20037;-54
2024/02/04 09:52:33;;;;;;;13.57;11.07;;;28.80;72.10;;;;;;5032116;28;20110;-51
2024/02/04 09:55:22;;;;;;;11.43;8.85;;;;;;;;;;5032194;28;20030;-51
2024/02/04 09:57:48;;;;;;;11.35;9.75;;;29.80;69.50;;;;;;5016102;28;20988;-53
2024/02/04 10:00:14;;;;;;;12.57;10.70;;;29.90;70.60;;;;;;5032784;28;20037;-56
2024/02/04 10:02:42;;;;;;;14.05;11.52;;;29.90;70.80;;;;;;5049749;28;20084;-58
2024/02/04 10:05:10;;;;;;;15.30;11.57;;;29.40;70.70;;;;;;5049751;28;20115;-54
2024/02/04 10:07:36;;;;;;;16.40;13.00;;;29.40;70.60;;;;;;5049757;28;20045;-57
2024/02/04 10:10:02;;;;;;;13.20;11.02;;;29.50;73.40;;;;;;5049679;28;20060;-55
2024/02/04 10:12:28;;;;;;;12.55;10.82;;;29.50;72.40;;;;;;5049710;28;20167;-53
2024/02/04 10:14:54;;;;;;;12.20;11.00;;;29.50;73.40;;;;;;5049700;28;20124;-57
2024/02/04 10:17:20;;;;;;;24.42;9.88;;;30.00;68.50;;;;;;5049399;28;20051;-54
2024/02/04 10:19:50;;;;;;;9.52;6.35;;;;;;;;;;5049227;28;20413;-56
2024/02/04 10:22:17;;;;;;;8.88;6.05;;;;;;;;;;5026045;28;20052;-52
2024/02/04 10:24:43;;;;;;;7.75;6.05;;;;;;;;;;5062625;28;20028;-53
2024/02/04 10:27:12;;;;;;;10.25;6.20;;;;;;;;;;5054952;28;20595;-52
2024/02/04 10:29:39;;;;;;;6.93;4.40;;;;;;;;;;5043376;28;20386;-56
2024/02/04 10:32:07;;;;;;;6.32;4.22;;;;;;;;;;5037868;28;20163;-55
2024/02/04 10:34:33;;;;;;;4.35;3.58;;;;;;;;;;5053187;28;20498;-56
2024/02/04 10:36:59;;;;;;;5.10;4.47;;;;;;;;;;5051299;28;20082;-55
2024/02/04 10:39:25;;;;;;;3.13;2.58;;;;;;;;;;5050725;28;20033;-50
2024/02/04 10:41:52;;;;;;;3.42;2.50;;;;;;;;;;5034534;28;20124;-50
2024/02/04 10:44:23;;;;;;;6.75;4.43;;;27.90;68.10;;;;;;5031537;28;20065;-53
2024/02/04 10:46:49;;;;;;;14.00;7.45;;;27.90;69.00;;;;;;5045067;28;20087;-53
2024/02/04 10:49:17;;;;;;;6.63;3.45;;;28.00;68.70;;;;;;5049488;28;20125;-51
2024/02/04 10:51:45;;;;;;;33.72;21.27;;;26.90;68.40;;;;;;5054872;28;22719;-54
2024/02/04 10:54:15;;;;;;;3.83;3.40;;;26.90;69.30;;;;;;5051552;28;20033;-51
2024/02/04 10:56:43;;;;;;;5.17;4.00;;;27.60;69.90;;;;;;5043523;28;20037;-51
2024/02/04 10:59:11;;;;;;;7.93;5.82;;;28.10;87.70;;;;;;5045464;28;20087;-56
2024/02/04 11:01:43;;;;;;;11.70;8.00;;;28.20;69.10;;;;;;5031175;28;20091;-53
2024/02/04 11:04:14;;;;;;;26.35;16.92;;;27.50;68.90;;;;;;5027974;28;20103;-52
2024/02/04 11:06:41;;;;;;;8.63;5.00;;;26.70;69.10;;;;;;5032419;28;20099;-55
2024/02/04 11:09:09;;;;;;;12.43;7.47;;;26.90;69.80;;;;;;5045763;28;20052;-51
2024/02/04 11:11:40;;;;;;;4.82;4.32;;;26.90;70.60;;;;;;5042227;28;20092;-52
2024/02/04 11:14:12;;;;;;;5.80;3.80;;;26.90;70.00;;;;;;5052106;28;20134;-55
2024/02/04 11:17:05;;;;;;;9.95;6.97;;;27.10;70.50;;;;;;5052242;28;20099;-52
2024/02/04 11:19:45;;;;;;;14.02;7.88;;;26.40;69.70;;;;;;5035349;28;20260;-58
2024/02/04 11:22:34;;;;;;;29.13;14.63;;;26.30;69.80;;;;;;4999194;28;20037;-55
2024/02/04 11:25:12;;;;;;;7.55;5.13;;;25.70;70.00;;;;;;5045585;28;20558;-53
2024/02/04 11:27:39;;;;;;;28.33;15.80;;;25.60;87.30;;;;;;5035552;28;20080;-53
2024/02/04 11:30:05;;;;;;;10.45;5.07;;;26.30;87.80;;;;;;5043787;28;20037;-57
2024/02/04 11:32:31;;;;;;;7.60;4.97;;;26.70;85.60;;;;;;5039772;28;20037;-57
2024/02/04 11:35:01;;;;;;;7.43;5.10;;;26.10;78.70;;;;;;5043159;28;20448;-53
2024/02/04 11:37:27;;;;;;;5.68;4.28;;;25.90;70.60;;;;;;5041505;28;20060;-49
2024/02/04 11:39:55;;;;;;;6.40;4.32;;;26.20;70.30;;;;;;5042282;28;20497;-52
2024/02/04 11:42:23;;;;;;;6.72;5.35;;;26.20;70.10;;;;;;5043784;28;20060;-56
2024/02/04 11:44:49;;;;;;;5.53;3.70;;;26.50;70.40;;;;;;5039691;28;20497;-51
2024/02/04 11:47:27;;;;;;;6.90;4.10;;;26.50;70.00;;;;;;5043184;28;20516;-53
2024/02/04 11:49:58;;;;;;;5.32;3.80;;;26.60;70.10;;;;;;5042107;28;20485;-57
2024/02/04 11:52:27;;;;;;;6.72;3.95;;;26.70;70.00;;;;;;5042964;28;20049;-57
2024/02/04 11:54:53;;;;;;;4.88;3.83;;;25.90;90.20;;;;;;5042347;28;20029;-56
2024/02/04 11:57:19;;;;;;;5.82;4.47;;;26.20;90.40;;;;;;5042661;28;20071;-55
2024/02/04 11:59:47;;;;;;;5.25;3.53;;;26.20;74.30;;;;;;5040711;28;20167;-52
2024/02/04 12:02:16;;;;;;;11.95;7.88;;;26.10;70.20;;;;;;5041072;28;20032;-50
2024/02/04 12:04:43;;;;;;;5.85;3.45;;;25.70;70.70;;;;;;5042779;28;20033;-52
2024/02/04 12:07:09;;;;;;;11.80;8.05;;;;;;;;;;5039845;28;20037;-52
2024/02/04 12:09:35;;;;;;;3.85;3.03;;;24.60;79.60;;;;;;5033906;28;20116;-55
2024/02/04 12:12:03;;;;;;;4.63;3.50;;;25.10;72.60;;;;;;5033469;28;20045;-50
2024/02/04 12:14:32;;;;;;;5.60;3.30;;;25.40;81.20;;;;;;5037003;28;20147;-53
2024/02/04 12:16:59;;;;;;;10.50;5.20;;;;;;;;;;5040440;28;20036;-51
2024/02/04 12:19:25;;;;;;;5.47;3.88;;;25.80;71.40;;;;;;5053580;28;20029;-53
2024/02/04 12:21:50;;;;;;;13.88;8.52;;;26.10;73.90;;;;;;5017861;28;20045;-56
2024/02/04 12:24:17;;;;;;;6.40;4.60;;;24.90;76.70;;;;;;5053029;28;20047;-52
2024/02/04 12:26:45;;;;;;;6.10;3.42;;;25.10;76.70;;;;;;5033407;28;20033;-56
2024/02/04 12:29:11;;;;;;;4.53;3.58;;;;;;;;;;5033025;28;20041;-50
2024/02/04 12:31:37;;;;;;;5.47;2.63;;;;;;;;;;5033384;28;20053;-52
2024/02/04 12:34:03;;;;;;;29.50;18.60;;;24.30;98.30;;;;;;5047864;28;20052;-53
2024/02/04 12:36:29;;;;;;;6.18;3.88;;;;;;;;;;5032995;28;20033;-57
2024/02/04 12:38:57;;;;;;;9.98;6.53;;;23.50;81.70;;;;;;5031159;28;20114;-52
2024/02/04 12:41:24;;;;;;;3.97;2.58;;;23.40;73.50;;;;;;5014570;28;20033;-53
2024/02/04 12:43:51;;;;;;;5.63;2.53;;;;;;;;;;5032475;28;20021;-52
2024/02/04 12:46:18;;;;;;;3.63;2.60;;;;;;;;;;5034312;28;20029;-52
2024/02/04 12:48:44;;;;;;;9.68;6.25;;;;;;;;;;5040005;28;20380;-51